sensor_id;sensor_type;location;lat;lon;timestamp;pressure;altitude;pressure_sealevel;temperature;humidity
60974;BME280;46846;51.528;5.076;2024-01-25T00:01:37;102295.34;;;6.41;91.60
60974;BME280;46846;51.528;5.076;2024-01-25T00:04:02;102305.97;;;6.45;91.96
60974;BME280;46846;51.528;5.076;2024-01-25T00:06:28;102307.69;;;6.42;91.79
60974;BME280;46846;51.528;5.076;2024-01-25T00:08:53;102306.81;;;6.40;91.76
60974;BME280;46846;51.528;5.076;2024-01-25T00:11:19;102288.28;;;6.37;91.71
60974;BME280;46846;51.528;5.076;2024-01-25T00:13:44;102303.22;;;6.35;92.11
60974;BME280;46846;51.528;5.076;2024-01-25T00:16:09;102314.69;;;6.31;91.83
60974;BME280;46846;51.528;5.076;2024-01-25T00:18:35;102319.91;;;6.22;91.99
60974;BME280;46846;51.528;5.076;2024-01-25T00:21:00;102304.94;;;6.24;92.35
60974;BME280;46846;51.528;5.076;2024-01-25T00:23:26;102297.03;;;6.25;92.14
60974;BME280;46846;51.528;5.076;2024-01-25T00:25:51;102297.84;;;6.20;92.37
60974;BME280;46846;51.528;5.076;2024-01-25T00:28:16;102311.06;;;6.20;92.50
60974;BME280;46846;51.528;5.076;2024-01-25T00:30:42;102316.38;;;6.26;92.22
60974;BME280;46846;51.528;5.076;2024-01-25T00:33:07;102306.69;;;6.23;92.18
60974;BME280;46846;51.528;5.076;2024-01-25T00:35:32;102304.00;;;6.19;92.20
60974;BME280;46846;51.528;5.076;2024-01-25T00:37:58;102302.22;;;6.16;92.66
60974;BME280;46846;51.528;5.076;2024-01-25T00:40:25;102295.22;;;6.18;92.53
60974;BME280;46846;51.528;5.076;2024-01-25T00:42:51;102302.25;;;6.18;91.99
60974;BME280;46846;51.528;5.076;2024-01-25T00:45:21;102301.41;;;6.22;92.35
60974;BME280;46846;51.528;5.076;2024-01-25T00:47:47;102300.47;;;6.20;92.14
60974;BME280;46846;51.528;5.076;2024-01-25T00:50:13;102289.91;;;6.17;92.11
60974;BME280;46846;51.528;5.076;2024-01-25T00:52:39;102288.09;;;6.09;92.02
60974;BME280;46846;51.528;5.076;2024-01-25T00:55:06;102297.78;;;6.12;92.29
60974;BME280;46846;51.528;5.076;2024-01-25T00:57:32;102309.22;;;6.12;92.39
60974;BME280;46846;51.528;5.076;2024-01-25T00:59:58;102303.94;;;6.12;92.23
60974;BME280;46846;51.528;5.076;2024-01-25T01:02:24;102310.13;;;6.13;91.80
60974;BME280;46846;51.528;5.076;2024-01-25T01:04:56;102301.31;;;6.14;92.24
60974;BME280;46846;51.528;5.076;2024-01-25T01:07:21;102305.72;;;6.13;92.17
60974;BME280;46846;51.528;5.076;2024-01-25T01:09:47;102305.72;;;6.13;92.28
60974;BME280;46846;51.528;5.076;2024-01-25T01:12:12;102310.97;;;6.07;91.73
60974;BME280;46846;51.528;5.076;2024-01-25T01:14:39;102327.69;;;6.08;91.92
60974;BME280;46846;51.528;5.076;2024-01-25T01:17:04;102320.66;;;6.10;91.58
60974;BME280;46846;51.528;5.076;2024-01-25T01:19:30;102320.63;;;6.02;92.10
60974;BME280;46846;51.528;5.076;2024-01-25T01:21:56;102310.94;;;6.04;92.22
60974;BME280;46846;51.528;5.076;2024-01-25T01:24:21;102322.31;;;5.95;92.08
60974;BME280;46846;51.528;5.076;2024-01-25T01:26:46;102328.47;;;5.97;92.23
60974;BME280;46846;51.528;5.076;2024-01-25T01:29:12;102322.28;;;5.94;91.89
60974;BME280;46846;51.528;5.076;2024-01-25T01:31:37;102328.47;;;5.97;92.19
60974;BME280;46846;51.528;5.076;2024-01-25T01:34:02;102332.00;;;5.96;92.09
60974;BME280;46846;51.528;5.076;2024-01-25T01:36:28;102341.63;;;5.91;91.84
60974;BME280;46846;51.528;5.076;2024-01-25T01:38:53;102334.63;;;5.96;91.72
60974;BME280;46846;51.528;5.076;2024-01-25T01:41:18;102339.91;;;5.95;91.96
60974;BME280;46846;51.528;5.076;2024-01-25T01:43:44;102327.56;;;5.94;91.72
60974;BME280;46846;51.528;5.076;2024-01-25T01:46:14;102324.03;;;5.93;91.53
60974;BME280;46846;51.528;5.076;2024-01-25T01:48:43;102330.16;;;5.89;91.67
60974;BME280;46846;51.528;5.076;2024-01-25T01:51:08;102335.44;;;5.91;91.79
60974;BME280;46846;51.528;5.076;2024-01-25T01:53:34;102334.53;;;5.87;91.98
60974;BME280;46846;51.528;5.076;2024-01-25T01:56:01;102332.78;;;5.84;91.66
60974;BME280;46846;51.528;5.076;2024-01-25T01:58:27;102345.97;;;5.86;92.16
60974;BME280;46846;51.528;5.076;2024-01-25T02:00:55;102350.44;;;5.90;91.81
60974;BME280;46846;51.528;5.076;2024-01-25T02:03:21;102353.03;;;5.85;91.37
60974;BME280;46846;51.528;5.076;2024-01-25T02:05:46;102346.81;;;5.83;91.79
60974;BME280;46846;51.528;5.076;2024-01-25T02:08:12;102358.25;;;5.79;91.95
60974;BME280;46846;51.528;5.076;2024-01-25T02:10:38;102364.41;;;5.78;92.09
60974;BME280;46846;51.528;5.076;2024-01-25T02:13:03;102370.53;;;5.75;92.11
60974;BME280;46846;51.528;5.076;2024-01-25T02:15:28;102370.56;;;5.77;91.24
60974;BME280;46846;51.528;5.076;2024-01-25T02:17:55;102373.19;;;5.77;91.90
60974;BME280;46846;51.528;5.076;2024-01-25T02:20:21;102381.97;;;5.76;92.07
60974;BME280;46846;51.528;5.076;2024-01-25T02:22:46;102381.97;;;5.74;91.94
60974;BME280;46846;51.528;5.076;2024-01-25T02:25:12;102380.19;;;5.75;91.71
60974;BME280;46846;51.528;5.076;2024-01-25T02:27:37;102382.91;;;5.81;91.65
60974;BME280;46846;51.528;5.076;2024-01-25T02:30:07;102382.84;;;5.75;91.65
60974;BME280;46846;51.528;5.076;2024-01-25T02:32:33;102393.41;;;5.75;91.37
60974;BME280;46846;51.528;5.076;2024-01-25T02:34:58;102389.84;;;5.70;91.28
60974;BME280;46846;51.528;5.076;2024-01-25T02:37:24;102382.78;;;5.70;91.85
60974;BME280;46846;51.528;5.076;2024-01-25T02:39:50;102388.94;;;5.66;91.36
60974;BME280;46846;51.528;5.076;2024-01-25T02:42:15;102385.38;;;5.66;91.33
60974;BME280;46846;51.528;5.076;2024-01-25T02:44:42;102393.25;;;5.61;91.57
60974;BME280;46846;51.528;5.076;2024-01-25T02:47:07;102393.22;;;5.59;91.64
60974;BME280;46846;51.528;5.076;2024-01-25T02:49:33;102384.41;;;5.57;91.69
60974;BME280;46846;51.528;5.076;2024-01-25T02:51:58;102384.41;;;5.57;91.59
60974;BME280;46846;51.528;5.076;2024-01-25T02:54:23;102387.88;;;5.53;91.54
60974;BME280;46846;51.528;5.076;2024-01-25T02:56:52;102390.47;;;5.48;91.91
60974;BME280;46846;51.528;5.076;2024-01-25T02:59:17;102385.19;;;5.48;91.99
60974;BME280;46846;51.528;5.076;2024-01-25T03:01:43;102389.53;;;5.45;91.79
60974;BME280;46846;51.528;5.076;2024-01-25T03:04:10;102390.47;;;5.47;91.84
60974;BME280;46846;51.528;5.076;2024-01-25T03:06:35;102393.13;;;5.47;91.41
60974;BME280;46846;51.528;5.076;2024-01-25T03:09:01;102386.03;;;5.46;91.69
60974;BME280;46846;51.528;5.076;2024-01-25T03:11:26;102382.41;;;5.38;91.81
60974;BME280;46846;51.528;5.076;2024-01-25T03:13:51;102382.41;;;5.36;91.46
60974;BME280;46846;51.528;5.076;2024-01-25T03:16:17;102380.63;;;5.35;91.97
60974;BME280;46846;51.528;5.076;2024-01-25T03:18:42;102375.28;;;5.30;92.03
60974;BME280;46846;51.528;5.076;2024-01-25T03:21:08;102378.81;;;5.29;91.55
60974;BME280;46846;51.528;5.076;2024-01-25T03:23:33;102382.31;;;5.28;91.99
60974;BME280;46846;51.528;5.076;2024-01-25T03:26:01;102380.53;;;5.24;91.92
60974;BME280;46846;51.528;5.076;2024-01-25T03:28:27;102369.09;;;5.25;91.54
60974;BME280;46846;51.528;5.076;2024-01-25T03:30:52;102374.38;;;5.25;91.54
60974;BME280;46846;51.528;5.076;2024-01-25T03:33:17;102381.38;;;5.22;91.98
60974;BME280;46846;51.528;5.076;2024-01-25T03:35:43;102376.94;;;5.19;91.92
60974;BME280;46846;51.528;5.076;2024-01-25T03:38:08;102370.75;;;5.18;92.16
60974;BME280;46846;51.528;5.076;2024-01-25T03:40:33;102382.16;;;5.16;91.80
60974;BME280;46846;51.528;5.076;2024-01-25T03:42:59;102391.00;;;5.18;92.02
60974;BME280;46846;51.528;5.076;2024-01-25T03:45:24;102389.22;;;5.17;92.04
60974;BME280;46846;51.528;5.076;2024-01-25T03:47:49;102377.72;;;5.12;91.74
60974;BME280;46846;51.528;5.076;2024-01-25T03:50:15;102381.19;;;5.09;91.47
60974;BME280;46846;51.528;5.076;2024-01-25T03:52:40;102384.66;;;5.06;91.67
60974;BME280;46846;51.528;5.076;2024-01-25T03:55:06;102393.47;;;5.09;92.18
60974;BME280;46846;51.528;5.076;2024-01-25T03:57:32;102385.50;;;5.02;91.83
60974;BME280;46846;51.528;5.076;2024-01-25T03:59:57;102395.19;;;5.03;92.16
60974;BME280;46846;51.528;5.076;2024-01-25T04:02:23;102389.84;;;4.99;92.26
60974;BME280;46846;51.528;5.076;2024-01-25T04:04:48;102400.41;;;4.99;92.02
60974;BME280;46846;51.528;5.076;2024-01-25T04:07:15;102398.63;;;4.99;92.24
60974;BME280;46846;51.528;5.076;2024-01-25T04:09:40;102393.34;;;4.98;91.84
60974;BME280;46846;51.528;5.076;2024-01-25T04:12:05;102393.28;;;4.93;91.87
60974;BME280;46846;51.528;5.076;2024-01-25T04:14:31;102380.97;;;4.93;92.31
60974;BME280;46846;51.528;5.076;2024-01-25T04:16:56;102388.00;;;4.93;92.06
60974;BME280;46846;51.528;5.076;2024-01-25T04:19:21;102384.47;;;4.91;92.52
60974;BME280;46846;51.528;5.076;2024-01-25T04:21:47;102386.25;;;4.93;92.30
60974;BME280;46846;51.528;5.076;2024-01-25T04:24:12;102385.31;;;4.90;91.88
60974;BME280;46846;51.528;5.076;2024-01-25T04:26:38;102384.44;;;4.89;92.44
60974;BME280;46846;51.528;5.076;2024-01-25T04:29:03;102386.22;;;4.92;92.38
60974;BME280;46846;51.528;5.076;2024-01-25T04:31:29;102386.22;;;4.92;92.35
60974;BME280;46846;51.528;5.076;2024-01-25T04:33:54;102389.69;;;4.89;91.81
60974;BME280;46846;51.528;5.076;2024-01-25T04:36:19;102394.97;;;4.89;92.32
60974;BME280;46846;51.528;5.076;2024-01-25T04:38:45;102393.22;;;4.88;91.68
60974;BME280;46846;51.528;5.076;2024-01-25T04:41:11;102394.03;;;4.86;92.05
60974;BME280;46846;51.528;5.076;2024-01-25T04:43:36;102389.63;;;4.85;92.06
60974;BME280;46846;51.528;5.076;2024-01-25T04:46:02;102391.34;;;4.81;91.70
60974;BME280;46846;51.528;5.076;2024-01-25T04:48:28;102384.28;;;4.77;91.85
60974;BME280;46846;51.528;5.076;2024-01-25T04:50:53;102382.47;;;4.74;92.45
60974;BME280;46846;51.528;5.076;2024-01-25T04:53:19;102381.63;;;4.77;92.79
60974;BME280;46846;51.528;5.076;2024-01-25T04:55:44;102382.50;;;4.77;92.24
60974;BME280;46846;51.528;5.076;2024-01-25T04:58:09;102387.81;;;4.79;92.08
60974;BME280;46846;51.528;5.076;2024-01-25T05:00:35;102374.59;;;4.77;92.18
60974;BME280;46846;51.528;5.076;2024-01-25T05:03:02;102379.81;;;4.73;91.99
60974;BME280;46846;51.528;5.076;2024-01-25T05:05:27;102383.34;;;4.73;92.46
60974;BME280;46846;51.528;5.076;2024-01-25T05:07:52;102391.25;;;4.75;91.93
60974;BME280;46846;51.528;5.076;2024-01-25T05:10:18;102393.88;;;4.75;92.42
60974;BME280;46846;51.528;5.076;2024-01-25T05:12:43;102393.91;;;4.76;92.01
60974;BME280;46846;51.528;5.076;2024-01-25T05:15:08;102391.19;;;4.70;91.91
60974;BME280;46846;51.528;5.076;2024-01-25T05:17:34;102382.38;;;4.68;91.92
60974;BME280;46846;51.528;5.076;2024-01-25T05:19:59;102375.31;;;4.67;92.22
60974;BME280;46846;51.528;5.076;2024-01-25T05:22:25;102382.31;;;4.63;91.53
60974;BME280;46846;51.528;5.076;2024-01-25T05:24:50;102380.53;;;4.64;91.67
60974;BME280;46846;51.528;5.076;2024-01-25T05:27:15;102381.41;;;4.63;92.39
60974;BME280;46846;51.528;5.076;2024-01-25T05:29:41;102388.44;;;4.62;91.55
60974;BME280;46846;51.528;5.076;2024-01-25T05:32:06;102395.47;;;4.62;91.29
60974;BME280;46846;51.528;5.076;2024-01-25T05:34:32;102393.69;;;4.61;92.38
60974;BME280;46846;51.528;5.076;2024-01-25T05:36:58;102391.91;;;4.60;92.04
60974;BME280;46846;51.528;5.076;2024-01-25T05:39:24;102395.38;;;4.57;91.55
60974;BME280;46846;51.528;5.076;2024-01-25T05:41:49;102400.69;;;4.59;91.95
60974;BME280;46846;51.528;5.076;2024-01-25T05:44:14;102408.59;;;4.59;92.07
60974;BME280;46846;51.528;5.076;2024-01-25T05:46:40;102398.94;;;4.58;92.06
60974;BME280;46846;51.528;5.076;2024-01-25T05:49:05;102390.03;;;4.53;91.59
60974;BME280;46846;51.528;5.076;2024-01-25T05:51:30;102390.84;;;4.48;91.37
60974;BME280;46846;51.528;5.076;2024-01-25T05:53:56;102393.47;;;4.48;91.84
60974;BME280;46846;51.528;5.076;2024-01-25T05:56:21;102396.97;;;4.47;91.52
60974;BME280;46846;51.528;5.076;2024-01-25T05:58:47;102395.31;;;4.53;91.47
60974;BME280;46846;51.528;5.076;2024-01-25T06:01:12;102409.38;;;4.51;91.76
60974;BME280;46846;51.528;5.076;2024-01-25T06:03:37;102401.31;;;4.44;91.61
60974;BME280;46846;51.528;5.076;2024-01-25T06:06:03;102399.47;;;4.38;92.05
60974;BME280;46846;51.528;5.076;2024-01-25T06:08:28;102391.47;;;4.32;91.65
60974;BME280;46846;51.528;5.076;2024-01-25T06:10:53;102391.47;;;4.32;91.92
60974;BME280;46846;51.528;5.076;2024-01-25T06:13:19;102403.78;;;4.33;92.11
60974;BME280;46846;51.528;5.076;2024-01-25T06:15:44;102405.53;;;4.34;91.71
60974;BME280;46846;51.528;5.076;2024-01-25T06:18:09;102402.03;;;4.33;92.00
60974;BME280;46846;51.528;5.076;2024-01-25T06:20:35;102398.50;;;4.33;91.73
60974;BME280;46846;51.528;5.076;2024-01-25T06:23:00;102404.59;;;4.30;91.51
60974;BME280;46846;51.528;5.076;2024-01-25T06:25:25;102406.34;;;4.28;92.08
60974;BME280;46846;51.528;5.076;2024-01-25T06:27:56;102408.09;;;4.29;91.78
60974;BME280;46846;51.528;5.076;2024-01-25T06:30:22;102414.28;;;4.30;91.57
60974;BME280;46846;51.528;5.076;2024-01-25T06:32:48;102416.91;;;4.30;92.17
60974;BME280;46846;51.528;5.076;2024-01-25T06:35:13;102410.66;;;4.24;91.21
60974;BME280;46846;51.528;5.076;2024-01-25T06:37:39;102412.44;;;4.26;91.70
60974;BME280;46846;51.528;5.076;2024-01-25T06:40:05;102403.63;;;4.23;91.49
60974;BME280;46846;51.528;5.076;2024-01-25T06:42:30;102408.84;;;4.20;91.55
60974;BME280;46846;51.528;5.076;2024-01-25T06:44:56;102412.34;;;4.19;91.34
60974;BME280;46846;51.528;5.076;2024-01-25T06:47:21;102412.31;;;4.18;91.87
60974;BME280;46846;51.528;5.076;2024-01-25T06:49:46;102403.50;;;4.16;91.33
60974;BME280;46846;51.528;5.076;2024-01-25T06:52:16;102400.88;;;4.16;91.14
60974;BME280;46846;51.528;5.076;2024-01-25T06:54:42;102405.19;;;4.12;91.69
60974;BME280;46846;51.528;5.076;2024-01-25T06:57:07;102409.53;;;4.08;92.08
60974;BME280;46846;51.528;5.076;2024-01-25T06:59:32;102404.19;;;4.05;91.45
60974;BME280;46846;51.528;5.076;2024-01-25T07:01:58;102409.50;;;4.07;91.51
60974;BME280;46846;51.528;5.076;2024-01-25T07:04:23;102423.53;;;4.07;91.83
60974;BME280;46846;51.528;5.076;2024-01-25T07:06:49;102423.53;;;4.06;91.30
60974;BME280;46846;51.528;5.076;2024-01-25T07:09:14;102420.06;;;4.08;91.54
60974;BME280;46846;51.528;5.076;2024-01-25T07:11:40;102414.78;;;4.08;90.89
60974;BME280;46846;51.528;5.076;2024-01-25T07:14:06;102411.31;;;4.11;91.03
60974;BME280;46846;51.528;5.076;2024-01-25T07:16:31;102413.91;;;4.08;91.00
60974;BME280;46846;51.528;5.076;2024-01-25T07:18:57;102413.84;;;4.05;90.01
60974;BME280;46846;51.528;5.076;2024-01-25T07:21:22;102423.44;;;4.03;90.68
60974;BME280;46846;51.528;5.076;2024-01-25T07:23:48;102435.72;;;4.01;90.96
60974;BME280;46846;51.528;5.076;2024-01-25T07:26:19;102432.16;;;3.99;91.37
60974;BME280;46846;51.528;5.076;2024-01-25T07:28:45;102427.84;;;4.04;90.81
60974;BME280;46846;51.528;5.076;2024-01-25T07:31:11;102423.44;;;4.01;90.56
60974;BME280;46846;51.528;5.076;2024-01-25T07:33:36;102439.25;;;4.03;91.13
60974;BME280;46846;51.528;5.076;2024-01-25T07:36:02;102431.31;;;4.00;91.32
60974;BME280;46846;51.528;5.076;2024-01-25T07:38:28;102423.44;;;4.01;91.12
60974;BME280;46846;51.528;5.076;2024-01-25T07:40:53;102433.97;;;4.03;90.94
60974;BME280;46846;51.528;5.076;2024-01-25T07:43:18;102433.06;;;4.01;91.12
60974;BME280;46846;51.528;5.076;2024-01-25T07:45:44;102445.31;;;3.97;90.80
60974;BME280;46846;51.528;5.076;2024-01-25T07:48:09;102442.66;;;3.97;90.69
60974;BME280;46846;51.528;5.076;2024-01-25T07:50:34;102438.25;;;3.96;91.00
60974;BME280;46846;51.528;5.076;2024-01-25T07:53:00;102425.06;;;3.94;91.18
60974;BME280;46846;51.528;5.076;2024-01-25T07:55:27;102422.28;;;3.88;91.12
60974;BME280;46846;51.528;5.076;2024-01-25T07:57:54;102419.56;;;3.82;91.61
60974;BME280;46846;51.528;5.076;2024-01-25T08:00:20;102422.09;;;3.77;91.13
60974;BME280;46846;51.528;5.076;2024-01-25T08:02:45;102422.94;;;3.76;91.67
60974;BME280;46846;51.528;5.076;2024-01-25T08:05:11;102430.94;;;3.81;91.13
60974;BME280;46846;51.528;5.076;2024-01-25T08:07:36;102437.06;;;3.80;91.79
60974;BME280;46846;51.528;5.076;2024-01-25T08:10:03;102449.41;;;3.82;92.09
60974;BME280;46846;51.528;5.076;2024-01-25T08:12:29;102417.84;;;3.84;91.45
60974;BME280;46846;51.528;5.076;2024-01-25T08:14:55;102402.91;;;3.83;91.74
60974;BME280;46846;51.528;5.076;2024-01-25T08:17:20;102419.59;;;3.83;91.45
60974;BME280;46846;51.528;5.076;2024-01-25T08:19:46;102416.94;;;3.82;91.90
60974;BME280;46846;51.528;5.076;2024-01-25T08:22:12;102402.06;;;3.84;91.63
60974;BME280;46846;51.528;5.076;2024-01-25T08:24:38;102402.91;;;3.83;91.39
60974;BME280;46846;51.528;5.076;2024-01-25T08:27:04;102419.47;;;3.77;91.53
60974;BME280;46846;51.528;5.076;2024-01-25T08:29:30;102436.00;;;3.70;91.69
60974;BME280;46846;51.528;5.076;2024-01-25T08:31:55;102430.63;;;3.65;91.84
60974;BME280;46846;51.528;5.076;2024-01-25T08:34:21;102434.13;;;3.64;91.63
60974;BME280;46846;51.528;5.076;2024-01-25T08:36:46;102423.63;;;3.66;91.51
60974;BME280;46846;51.528;5.076;2024-01-25T08:39:12;102421.13;;;3.72;91.95
60974;BME280;46846;51.528;5.076;2024-01-25T08:41:37;102422.00;;;3.73;91.91
60974;BME280;46846;51.528;5.076;2024-01-25T08:44:03;102415.91;;;3.75;91.27
60974;BME280;46846;51.528;5.076;2024-01-25T08:46:28;102430.81;;;3.73;91.40
60974;BME280;46846;51.528;5.076;2024-01-25T08:48:54;102436.94;;;3.74;91.48
60974;BME280;46846;51.528;5.076;2024-01-25T08:51:19;102435.25;;;3.77;91.95
60974;BME280;46846;51.528;5.076;2024-01-25T08:53:44;102428.13;;;3.72;91.84
60974;BME280;46846;51.528;5.076;2024-01-25T08:56:10;102424.56;;;3.68;91.91
60974;BME280;46846;51.528;5.076;2024-01-25T08:58:35;102421.78;;;3.62;92.36
60974;BME280;46846;51.528;5.076;2024-01-25T09:01:00;102429.69;;;3.60;92.09
60974;BME280;46846;51.528;5.076;2024-01-25T09:03:26;102430.50;;;3.59;91.63
60974;BME280;46846;51.528;5.076;2024-01-25T09:05:52;102424.50;;;3.65;91.76
60974;BME280;46846;51.528;5.076;2024-01-25T09:08:17;102428.94;;;3.67;91.88
60974;BME280;46846;51.528;5.076;2024-01-25T09:10:43;102434.22;;;3.69;92.02
60974;BME280;46846;51.528;5.076;2024-01-25T09:13:09;102435.16;;;3.71;91.90
60974;BME280;46846;51.528;5.076;2024-01-25T09:15:35;102435.16;;;3.71;91.88
60974;BME280;46846;51.528;5.076;2024-01-25T09:18:01;102428.16;;;3.73;91.37
60974;BME280;46846;51.528;5.076;2024-01-25T09:20:26;102436.09;;;3.75;91.38
60974;BME280;46846;51.528;5.076;2024-01-25T09:22:52;102437.75;;;3.69;91.93
60974;BME280;46846;51.528;5.076;2024-01-25T09:25:20;102437.63;;;3.63;91.73
60974;BME280;46846;51.528;5.076;2024-01-25T09:27:46;102432.22;;;3.57;91.60
60974;BME280;46846;51.528;5.076;2024-01-25T09:30:12;102429.69;;;3.60;91.88
60974;BME280;46846;51.528;5.076;2024-01-25T09:32:38;102420.94;;;3.63;92.03
60974;BME280;46846;51.528;5.076;2024-01-25T09:35:03;102428.00;;;3.64;91.91
60974;BME280;46846;51.528;5.076;2024-01-25T09:37:29;102436.81;;;3.66;91.95
60974;BME280;46846;51.528;5.076;2024-01-25T09:39:54;102442.16;;;3.71;91.24
60974;BME280;46846;51.528;5.076;2024-01-25T09:42:20;102448.28;;;3.69;91.80
60974;BME280;46846;51.528;5.076;2024-01-25T09:44:45;102447.47;;;3.72;92.05
60974;BME280;46846;51.528;5.076;2024-01-25T09:47:11;102444.00;;;3.75;91.82
60974;BME280;46846;51.528;5.076;2024-01-25T09:49:37;102437.84;;;3.74;91.47
60974;BME280;46846;51.528;5.076;2024-01-25T09:52:03;102431.63;;;3.71;91.89
60974;BME280;46846;51.528;5.076;2024-01-25T09:54:35;102434.34;;;3.75;91.57
60974;BME280;46846;51.528;5.076;2024-01-25T09:57:05;102429.09;;;3.75;91.50
60974;BME280;46846;51.528;5.076;2024-01-25T09:59:31;102422.00;;;3.73;91.32
60974;BME280;46846;51.528;5.076;2024-01-25T10:01:57;102420.22;;;3.72;91.72
60974;BME280;46846;51.528;5.076;2024-01-25T10:04:24;102422.94;;;3.76;91.43
60974;BME280;46846;51.528;5.076;2024-01-25T10:06:50;102416.81;;;3.76;91.32
60974;BME280;46846;51.528;5.076;2024-01-25T10:09:15;102413.31;;;3.77;91.70
60974;BME280;46846;51.528;5.076;2024-01-25T10:11:41;102406.28;;;3.76;91.37
60974;BME280;46846;51.528;5.076;2024-01-25T10:14:06;102401.75;;;3.70;91.46
60974;BME280;46846;51.528;5.076;2024-01-25T10:16:33;102403.50;;;3.68;91.89
60974;BME280;46846;51.528;5.076;2024-01-25T10:19:01;102403.44;;;3.65;91.84
60974;BME280;46846;51.528;5.076;2024-01-25T10:21:28;102397.41;;;3.71;91.53
60974;BME280;46846;51.528;5.076;2024-01-25T10:23:54;102397.53;;;3.77;91.23
60974;BME280;46846;51.528;5.076;2024-01-25T10:26:26;102395.81;;;3.79;91.43
60974;BME280;46846;51.528;5.076;2024-01-25T10:28:52;102397.59;;;3.81;91.55
60974;BME280;46846;51.528;5.076;2024-01-25T10:31:18;102397.56;;;3.80;91.54
60974;BME280;46846;51.528;5.076;2024-01-25T10:33:44;102383.53;;;3.79;91.63
60974;BME280;46846;51.528;5.076;2024-01-25T10:36:10;102380.91;;;3.79;91.35
60974;BME280;46846;51.528;5.076;2024-01-25T10:38:36;102380.06;;;3.82;91.15
60974;BME280;46846;51.528;5.076;2024-01-25T10:41:04;102380.06;;;3.82;92.18
60974;BME280;46846;51.528;5.076;2024-01-25T10:43:31;102384.44;;;3.81;91.88
60974;BME280;46846;51.528;5.076;2024-01-25T10:45:57;102391.53;;;3.84;91.15
60974;BME280;46846;51.528;5.076;2024-01-25T10:48:27;102396.66;;;3.78;91.05
60974;BME280;46846;51.528;5.076;2024-01-25T10:50:53;102399.34;;;3.81;91.66
60974;BME280;46846;51.528;5.076;2024-01-25T10:53:19;102395.00;;;3.83;91.73
60974;BME280;46846;51.528;5.076;2024-01-25T10:55:46;102395.88;;;3.82;91.72
60974;BME280;46846;51.528;5.076;2024-01-25T10:58:13;102385.34;;;3.82;92.08
60974;BME280;46846;51.528;5.076;2024-01-25T11:00:39;102368.66;;;3.81;91.38
60974;BME280;46846;51.528;5.076;2024-01-25T11:03:06;102360.63;;;3.75;91.79
60974;BME280;46846;51.528;5.076;2024-01-25T11:05:32;102361.59;;;3.80;91.61
60974;BME280;46846;51.528;5.076;2024-01-25T11:07:57;102357.13;;;3.75;92.04
60974;BME280;46846;51.528;5.076;2024-01-25T11:10:26;102341.31;;;3.75;92.04
60974;BME280;46846;51.528;5.076;2024-01-25T11:13:00;102340.63;;;3.85;92.09
60974;BME280;46846;51.528;5.076;2024-01-25T11:15:33;102339.84;;;3.91;92.18
60974;BME280;46846;51.528;5.076;2024-01-25T11:18:00;102324.94;;;3.93;91.59
60974;BME280;46846;51.528;5.076;2024-01-25T11:20:27;102336.41;;;3.96;91.78
60974;BME280;46846;51.528;5.076;2024-01-25T11:23:01;102334.75;;;4.02;91.50
60974;BME280;46846;51.528;5.076;2024-01-25T11:25:27;102331.28;;;4.04;91.73
60974;BME280;46846;51.528;5.076;2024-01-25T11:27:54;102327.72;;;4.01;92.02
60974;BME280;46846;51.528;5.076;2024-01-25T11:30:20;102323.19;;;3.93;91.47
60974;BME280;46846;51.528;5.076;2024-01-25T11:32:48;102320.59;;;3.96;91.50
60974;BME280;46846;51.528;5.076;2024-01-25T11:35:15;102332.84;;;3.93;91.68
60974;BME280;46846;51.528;5.076;2024-01-25T11:37:45;102331.16;;;3.95;92.12
60974;BME280;46846;51.528;5.076;2024-01-25T11:40:12;102329.38;;;3.94;91.69
60974;BME280;46846;51.528;5.076;2024-01-25T11:42:39;102320.69;;;4.00;91.57
60974;BME280;46846;51.528;5.076;2024-01-25T11:45:08;102331.16;;;3.96;91.76
60974;BME280;46846;51.528;5.076;2024-01-25T11:47:35;102316.31;;;4.02;92.28
60974;BME280;46846;51.528;5.076;2024-01-25T11:50:01;102325.13;;;4.02;92.54
60974;BME280;46846;51.528;5.076;2024-01-25T11:52:27;102315.56;;;4.09;92.67
60974;BME280;46846;51.528;5.076;2024-01-25T11:54:53;102315.59;;;4.10;92.05
60974;BME280;46846;51.528;5.076;2024-01-25T11:57:19;102310.19;;;4.03;91.64
60974;BME280;46846;51.528;5.076;2024-01-25T11:59:44;102296.09;;;4.01;91.99
60974;BME280;46846;51.528;5.076;2024-01-25T12:02:12;102275.16;;;4.07;91.99
60974;BME280;46846;51.528;5.076;2024-01-25T12:04:39;102262.94;;;4.12;92.10
60974;BME280;46846;51.528;5.076;2024-01-25T12:07:04;102255.03;;;4.12;92.28
60974;BME280;46846;51.528;5.076;2024-01-25T12:09:30;102253.44;;;4.23;92.64
60974;BME280;46846;51.528;5.076;2024-01-25T12:11:55;102253.47;;;4.25;91.73
60974;BME280;46846;51.528;5.076;2024-01-25T12:14:23;102266.56;;;4.20;91.48
60974;BME280;46846;51.528;5.076;2024-01-25T12:16:49;102256.03;;;4.22;91.71
60974;BME280;46846;51.528;5.076;2024-01-25T12:19:15;102254.22;;;4.18;91.56
60974;BME280;46846;51.528;5.076;2024-01-25T12:21:43;102254.25;;;4.21;91.18
60974;BME280;46846;51.528;5.076;2024-01-25T12:24:09;102239.34;;;4.21;91.67
60974;BME280;46846;51.528;5.076;2024-01-25T12:26:35;102241.06;;;4.18;91.37
60974;BME280;46846;51.528;5.076;2024-01-25T12:29:01;102242.75;;;4.14;91.90
60974;BME280;46846;51.528;5.076;2024-01-25T12:31:26;102238.38;;;4.13;91.58
60974;BME280;46846;51.528;5.076;2024-01-25T12:33:51;102241.94;;;4.18;91.91
60974;BME280;46846;51.528;5.076;2024-01-25T12:36:17;102241.03;;;4.16;91.42
60974;BME280;46846;51.528;5.076;2024-01-25T12:38:42;102232.28;;;4.19;92.31
60974;BME280;46846;51.528;5.076;2024-01-25T12:41:07;102236.66;;;4.18;92.17
60974;BME280;46846;51.528;5.076;2024-01-25T12:43:33;102239.16;;;4.09;92.39
60974;BME280;46846;51.528;5.076;2024-01-25T12:45:58;102226.84;;;4.08;92.52
60974;BME280;46846;51.528;5.076;2024-01-25T12:48:24;102218.13;;;4.10;92.73
60974;BME280;46846;51.528;5.076;2024-01-25T12:50:49;102222.47;;;4.07;92.71
60974;BME280;46846;51.528;5.076;2024-01-25T12:53:15;102220.59;;;4.00;92.90